createdAt,value
2022-11-17T00:00:10.651Z,13.43
2022-11-17T00:02:38.874Z,13.50
2022-11-17T00:05:09.192Z,13.70
2022-11-17T00:07:37.609Z,13.30
2022-11-17T00:10:06.540Z,14.43
2022-11-17T00:12:52.527Z,13.70
2022-11-17T00:15:20.621Z,11.67
2022-11-17T00:17:49.142Z,11.83
2022-11-17T00:20:36.412Z,11.77
2022-11-17T00:23:07.640Z,12.07
2022-11-17T00:25:35.760Z,12.33
2022-11-17T00:28:04.089Z,11.10
2022-11-17T00:30:49.492Z,12.27
2022-11-17T00:33:35.424Z,11.77
2022-11-17T00:36:05.412Z,11.50
2022-11-17T00:38:33.585Z,12.00
2022-11-17T00:41:01.674Z,12.80
2022-11-17T00:43:29.770Z,12.17
2022-11-17T00:45:57.913Z,13.90
2022-11-17T00:48:26.200Z,12.30
2022-11-17T00:50:54.361Z,14.43
2022-11-17T00:53:23.850Z,10.20
2022-11-17T00:55:52.023Z,10.77
2022-11-17T00:58:20.172Z,10.73
2022-11-17T01:00:49.942Z,9.87
2022-11-17T01:03:18.103Z,10.23
2022-11-17T01:05:46.270Z,11.33
2022-11-17T01:08:14.406Z,11.10
2022-11-17T01:10:43.952Z,12.27
2022-11-17T01:13:12.321Z,11.20
2022-11-17T01:15:40.402Z,10.90
2022-11-17T01:18:08.564Z,10.90
2022-11-17T01:20:36.884Z,10.23
2022-11-17T01:23:04.971Z,11.60
2022-11-17T01:25:33.160Z,11.40
2022-11-17T01:28:02.994Z,10.53
2022-11-17T01:30:31.091Z,10.83
2022-11-17T01:32:59.630Z,11.30
2022-11-17T01:35:27.792Z,12.03
2022-11-17T01:37:55.910Z,12.70
2022-11-17T01:40:24.119Z,12.77
2022-11-17T01:42:52.231Z,11.47
2022-11-17T01:45:22.560Z,13.37
2022-11-17T01:47:52.194Z,13.50
2022-11-17T01:50:26.552Z,14.27
2022-11-17T01:52:57.352Z,14.33
2022-11-17T01:55:27.511Z,15.03
2022-11-17T01:57:59.316Z,15.67
2022-11-17T02:00:29.013Z,16.27
2022-11-17T02:02:57.846Z,16.20
2022-11-17T02:05:34.290Z,15.57
2022-11-17T02:08:04.885Z,16.43
2022-11-17T02:10:33.550Z,15.63
2022-11-17T02:13:02.276Z,15.83
2022-11-17T02:19:19.511Z,16.50
2022-11-17T02:22:09.994Z,16.47
2022-11-17T02:24:57.328Z,18.13
2022-11-17T02:27:49.407Z,17.17
2022-11-17T02:30:20.328Z,18.27
2022-11-17T02:32:59.786Z,16.77
2022-11-17T02:35:29.649Z,17.10
2022-11-17T02:38:05.410Z,18.20
2022-11-17T02:40:35.859Z,19.17
2022-11-17T02:43:26.615Z,18.50
2022-11-17T02:45:58.445Z,18.73
2022-11-17T02:48:32.963Z,19.03
2022-11-17T02:51:01.526Z,19.27
2022-11-17T02:53:30.287Z,19.00
2022-11-17T02:56:01.245Z,18.40
2022-11-17T02:58:30.825Z,19.67
2022-11-17T03:01:12.381Z,18.80
2022-11-17T03:03:48.844Z,18.27
2022-11-17T03:06:23.386Z,20.97
2022-11-17T03:09:00.825Z,19.63
2022-11-17T03:11:34.314Z,18.60
2022-11-17T03:14:08.638Z,18.57
2022-11-17T03:16:38.889Z,18.20
2022-11-17T03:19:11.157Z,18.23
2022-11-17T03:21:42.657Z,17.87
2022-11-17T03:24:15.705Z,18.80
2022-11-17T03:26:45.957Z,17.83
2022-11-17T03:29:17.376Z,19.50
2022-11-17T03:31:47.193Z,17.70
2022-11-17T03:34:17.998Z,16.83
2022-11-17T03:36:50.414Z,16.77
2022-11-17T03:39:23.825Z,16.10
2022-11-17T03:41:55.507Z,15.73
2022-11-17T03:44:26.534Z,15.47
2022-11-17T03:46:56.142Z,17.03
2022-11-17T03:49:29.216Z,16.63
2022-11-17T03:51:57.416Z,16.50
2022-11-17T03:54:25.774Z,15.17
2022-11-17T03:56:58.163Z,16.50
2022-11-17T03:59:31.733Z,14.80
2022-11-17T04:02:00.375Z,14.37
2022-11-17T04:04:49.319Z,17.13
2022-11-17T04:07:18.132Z,14.93
2022-11-17T04:09:46.545Z,14.03
2022-11-17T04:12:32.055Z,14.77
2022-11-17T04:15:19.282Z,14.17
2022-11-17T04:17:47.723Z,15.20
2022-11-17T04:20:16.504Z,14.90
2022-11-17T04:22:45.138Z,14.37
2022-11-17T04:25:33.623Z,14.37
2022-11-17T04:28:16.138Z,14.43
2022-11-17T04:30:45.814Z,13.70
2022-11-17T04:33:13.992Z,13.17
2022-11-17T04:35:42.217Z,13.37
2022-11-17T04:38:10.404Z,13.50
2022-11-17T04:40:58.625Z,12.73
2022-11-17T04:43:25.714Z,13.43
2022-11-17T04:46:00.275Z,13.07
2022-11-17T04:48:28.694Z,13.17
2022-11-17T04:50:57.394Z,13.40
2022-11-17T04:53:26.054Z,12.57
2022-11-17T04:55:54.217Z,14.53
2022-11-17T04:58:22.374Z,13.77
2022-11-17T05:00:50.494Z,14.60
2022-11-17T05:03:20.146Z,13.83
2022-11-17T05:05:48.797Z,13.93
2022-11-17T05:08:17.083Z,12.97
2022-11-17T05:11:03.267Z,12.40
2022-11-17T05:13:31.604Z,13.40
2022-11-17T05:16:17.550Z,14.10
2022-11-17T05:18:47.336Z,12.60
2022-11-17T05:21:15.645Z,13.10
2022-11-17T05:23:55.352Z,12.90
2022-11-17T05:26:26.045Z,12.37
2022-11-17T05:28:56.085Z,12.23
2022-11-17T05:31:24.701Z,12.10
2022-11-17T05:33:54.593Z,13.17
2022-11-17T05:36:23.326Z,10.97
2022-11-17T05:38:51.785Z,11.37
2022-11-17T05:41:20.455Z,11.17
2022-11-17T05:43:50.513Z,11.37
2022-11-17T05:46:19.265Z,11.97
2022-11-17T05:48:48.979Z,10.90
2022-11-17T05:51:19.119Z,11.37
2022-11-17T05:53:47.358Z,11.60
2022-11-17T05:56:25.876Z,11.27
2022-11-17T05:58:56.075Z,11.53
2022-11-17T06:01:24.505Z,11.23
2022-11-17T06:03:54.822Z,11.27
2022-11-17T06:06:25.218Z,10.63
2022-11-17T06:08:53.585Z,11.33
2022-11-17T06:11:21.947Z,11.07
2022-11-17T06:13:50.224Z,11.23
2022-11-17T06:16:20.285Z,11.30
2022-11-17T06:18:52.149Z,12.13
2022-11-17T06:21:20.876Z,11.93
2022-11-17T06:23:51.395Z,28.47
2022-11-17T06:26:19.776Z,16.70
2022-11-17T06:28:49.467Z,13.97
2022-11-17T06:31:18.544Z,12.47
2022-11-17T06:33:47.257Z,10.97
2022-11-17T06:36:15.639Z,11.23
2022-11-17T06:38:43.866Z,11.77
2022-11-17T06:41:13.447Z,13.27
2022-11-17T06:43:41.898Z,11.87
2022-11-17T06:46:10.097Z,12.43
2022-11-17T06:48:38.516Z,12.73
2022-11-17T06:51:07.836Z,12.60
2022-11-17T06:53:36.825Z,13.13
2022-11-17T06:56:07.538Z,12.80
2022-11-17T06:58:39.947Z,14.00
2022-11-17T07:01:09.489Z,13.17
2022-11-17T07:03:43.136Z,11.93
2022-11-17T07:06:12.488Z,19.23
2022-11-17T07:08:40.671Z,14.03
2022-11-17T07:11:10.174Z,13.67
2022-11-17T07:13:40.011Z,14.67
2022-11-17T07:16:10.549Z,14.07
2022-11-17T07:18:51.675Z,13.57
2022-11-17T07:21:19.977Z,14.87
2022-11-17T07:23:48.273Z,14.00
2022-11-17T07:26:16.427Z,16.17
2022-11-17T07:28:45.998Z,14.90
2022-11-17T07:31:14.297Z,13.97
2022-11-17T07:33:42.471Z,14.40
2022-11-17T07:36:12.248Z,13.33
2022-11-17T07:38:41.625Z,13.63
2022-11-17T07:41:12.717Z,14.83
2022-11-17T07:43:41.010Z,27.70
2022-11-17T07:46:13.118Z,14.77
2022-11-17T07:48:41.336Z,14.93
2022-11-17T07:51:09.632Z,11.90
2022-11-17T07:53:38.040Z,11.87
2022-11-17T07:56:07.379Z,11.80
2022-11-17T07:58:36.069Z,13.13
2022-11-17T08:01:06.598Z,12.80
2022-11-17T08:03:36.311Z,12.83
2022-11-17T08:06:05.001Z,12.40
2022-11-17T08:08:34.320Z,13.37
2022-11-17T08:11:03.970Z,12.17
2022-11-17T08:13:32.386Z,10.37
2022-11-17T08:16:00.839Z,10.67
2022-11-17T08:18:29.694Z,9.37
2022-11-17T08:21:04.666Z,9.00
2022-11-17T08:23:33.138Z,9.47
2022-11-17T08:26:01.489Z,19.53
2022-11-17T08:28:29.677Z,9.33
2022-11-17T08:30:58.009Z,8.60
2022-11-17T08:33:26.187Z,10.10
2022-11-17T08:35:54.337Z,9.80
2022-11-17T08:38:29.065Z,8.07
2022-11-17T08:40:57.564Z,8.87
2022-11-17T08:43:25.860Z,8.63
2022-11-17T08:45:54.066Z,12.27
2022-11-17T08:48:22.173Z,12.63
2022-11-17T08:50:50.599Z,9.63
2022-11-17T08:53:20.345Z,9.23
2022-11-17T08:55:50.035Z,8.97
2022-11-17T08:58:18.289Z,9.07
2022-11-17T09:00:47.597Z,8.97
2022-11-17T09:03:16.531Z,9.03
2022-11-17T09:05:47.266Z,8.73
2022-11-17T09:08:43.830Z,8.70
2022-11-17T09:11:07.605Z,9.50
2022-11-17T09:13:36.280Z,8.60
2022-11-17T09:16:04.573Z,9.03
2022-11-17T09:18:33.201Z,9.07
2022-11-17T09:21:02.310Z,9.87
2022-11-17T09:23:31.869Z,8.73
2022-11-17T09:26:00.866Z,8.83
2022-11-17T09:28:30.510Z,10.23
2022-11-17T09:31:00.395Z,9.53
2022-11-17T09:33:30.050Z,9.87
2022-11-17T09:35:58.796Z,10.17
2022-11-17T09:38:26.947Z,9.03
2022-11-17T09:41:01.395Z,12.63
2022-11-17T09:43:33.971Z,9.93
2022-11-17T09:46:07.806Z,10.43
2022-11-17T09:48:42.450Z,10.53
2022-11-17T09:51:13.947Z,9.43
2022-11-17T09:53:45.837Z,9.87
2022-11-17T09:56:15.237Z,9.87
2022-11-17T09:58:49.046Z,9.80
2022-11-17T10:01:19.252Z,9.70
2022-11-17T10:03:48.974Z,9.90
2022-11-17T10:06:21.016Z,10.57
2022-11-17T10:08:58.580Z,10.10
2022-11-17T10:11:36.467Z,9.87
2022-11-17T10:14:23.816Z,9.57
2022-11-17T10:16:54.231Z,10.23
2022-11-17T10:19:24.299Z,8.37
2022-11-17T10:21:54.618Z,8.47
2022-11-17T10:24:36.743Z,9.23
2022-11-17T10:27:06.906Z,10.23
2022-11-17T10:29:36.485Z,9.50
2022-11-17T10:32:07.254Z,9.50
2022-11-17T10:34:40.955Z,9.37
2022-11-17T10:37:26.315Z,9.03
2022-11-17T10:40:11.094Z,12.83
2022-11-17T10:42:39.769Z,9.13
2022-11-17T10:45:18.029Z,9.40
2022-11-17T10:47:46.369Z,9.73
2022-11-17T10:50:20.027Z,10.10
2022-11-17T10:52:48.418Z,10.13
2022-11-17T10:55:27.646Z,9.97
2022-11-17T10:57:58.456Z,10.30
2022-11-17T11:00:31.379Z,10.10
2022-11-17T11:03:19.847Z,10.50
2022-11-17T11:06:06.429Z,10.50
2022-11-17T11:08:47.735Z,11.30
2022-11-17T11:11:23.040Z,11.20
2022-11-17T11:13:56.384Z,11.77
2022-11-17T11:16:27.179Z,10.73
2022-11-17T11:18:55.296Z,11.13
2022-11-17T11:21:39.667Z,11.50
2022-11-17T11:24:14.997Z,11.13
2022-11-17T11:26:49.146Z,12.17
2022-11-17T11:29:26.726Z,12.13
2022-11-17T11:32:07.139Z,10.93
2022-11-17T11:35:05.068Z,15.30
2022-11-17T11:37:39.124Z,12.23
2022-11-17T11:40:16.719Z,12.60
2022-11-17T11:42:54.096Z,12.80
2022-11-17T11:45:32.759Z,12.20
2022-11-17T11:48:17.280Z,12.43
2022-11-17T11:50:54.186Z,11.70
2022-11-17T11:53:36.749Z,11.60
2022-11-17T11:56:11.035Z,11.33
2022-11-17T11:58:43.741Z,10.90
2022-11-17T12:01:13.695Z,10.13
2022-11-17T12:03:49.947Z,10.47
2022-11-17T12:06:43.353Z,10.70
2022-11-17T12:09:40.853Z,10.57
2022-11-17T12:12:10.553Z,11.00
2022-11-17T12:14:39.466Z,9.93
2022-11-17T12:17:23.504Z,8.93
2022-11-17T12:19:59.007Z,9.77
2022-11-17T12:22:54.098Z,8.70
2022-11-17T12:25:27.019Z,8.17
2022-11-17T12:27:55.276Z,8.10
2022-11-17T12:30:55.938Z,8.33
2022-11-17T12:33:24.809Z,8.03
2022-11-17T12:36:31.122Z,7.87
2022-11-17T12:39:01.436Z,7.80
2022-11-17T12:42:09.868Z,8.37
2022-11-17T12:44:48.886Z,7.83
2022-11-17T12:47:19.858Z,7.23
2022-11-17T12:49:58.056Z,7.97
2022-11-17T12:52:34.405Z,7.90
2022-11-17T12:55:07.756Z,8.47
2022-11-17T12:57:36.565Z,7.63
2022-11-17T13:00:10.066Z,8.33
2022-11-17T13:03:06.678Z,7.33
2022-11-17T13:05:35.876Z,6.70
2022-11-17T13:08:21.765Z,7.20
2022-11-17T13:10:51.445Z,7.13
2022-11-17T13:13:20.836Z,6.67
2022-11-17T13:15:51.435Z,7.67
2022-11-17T13:18:27.224Z,6.70
2022-11-17T13:20:55.980Z,6.83
2022-11-17T13:23:26.109Z,6.13
2022-11-17T13:26:11.290Z,6.63
2022-11-17T13:28:39.567Z,6.10
2022-11-17T13:31:08.483Z,5.97
2022-11-17T13:33:40.319Z,6.60
2022-11-17T13:36:17.423Z,5.80
2022-11-17T13:38:50.120Z,5.40
2022-11-17T13:41:21.175Z,5.90
2022-11-17T13:43:50.596Z,5.53
2022-11-17T13:46:20.039Z,5.63
2022-11-17T13:48:50.985Z,5.30
2022-11-17T13:51:23.928Z,5.50
2022-11-17T13:53:55.664Z,5.60
2022-11-17T13:56:27.815Z,5.60
2022-11-17T13:58:56.435Z,6.20
2022-11-17T14:01:25.583Z,6.00
2022-11-17T14:03:54.007Z,6.00
2022-11-17T14:06:22.485Z,5.43
2022-11-17T14:09:05.646Z,6.60
2022-11-17T14:11:35.235Z,6.33
2022-11-17T14:14:03.439Z,6.57
2022-11-17T14:16:36.565Z,6.77
2022-11-17T14:19:07.039Z,6.37
2022-11-17T14:21:35.195Z,6.75
2022-11-17T14:24:06.696Z,6.30
2022-11-17T14:26:36.375Z,5.77
2022-11-17T14:29:05.031Z,5.57
2022-11-17T14:31:33.467Z,5.90
2022-11-17T14:34:01.806Z,5.37
2022-11-17T14:36:30.358Z,6.23
2022-11-17T14:38:58.707Z,6.33
2022-11-17T14:41:27.065Z,6.23
2022-11-17T14:43:56.614Z,6.27
2022-11-17T14:46:26.426Z,6.50
2022-11-17T14:48:55.522Z,7.23
2022-11-17T14:51:24.373Z,6.53
2022-11-17T14:53:54.249Z,7.27
2022-11-17T14:56:23.798Z,8.57
2022-11-17T14:59:03.248Z,7.23
2022-11-17T15:01:32.778Z,7.53
2022-11-17T15:04:20.784Z,8.67
2022-11-17T15:06:51.671Z,7.87
2022-11-17T15:09:20.829Z,6.87
2022-11-17T15:11:49.015Z,6.43
2022-11-17T15:14:19.182Z,6.80
2022-11-17T15:16:48.825Z,6.53
2022-11-17T15:19:17.067Z,6.57
2022-11-17T15:21:45.889Z,6.67
2022-11-17T15:24:14.259Z,7.33
2022-11-17T15:26:42.818Z,6.77
2022-11-17T15:29:15.264Z,6.43
2022-11-17T15:31:45.394Z,6.60
2022-11-17T15:34:19.700Z,6.10
2022-11-17T15:36:48.638Z,7.37
2022-11-17T15:39:17.463Z,7.80
2022-11-17T15:41:46.336Z,7.40
2022-11-17T15:44:15.008Z,6.77
2022-11-17T15:46:47.589Z,6.60
2022-11-17T15:49:16.827Z,6.13
2022-11-17T15:51:45.319Z,5.63
2022-11-17T15:54:19.969Z,5.80
2022-11-17T15:56:49.107Z,6.40
2022-11-17T15:59:17.537Z,6.63
2022-11-17T16:01:48.044Z,6.80
2022-11-17T16:04:16.753Z,7.30
2022-11-17T16:06:46.816Z,8.33
2022-11-17T16:09:16.136Z,10.23
2022-11-17T16:11:44.849Z,10.57
2022-11-17T16:14:15.160Z,11.77
2022-11-17T16:16:48.418Z,10.37
2022-11-17T16:19:19.123Z,7.30
2022-11-17T16:21:47.997Z,6.57
2022-11-17T16:24:16.835Z,7.20
2022-11-17T16:26:46.091Z,8.20
2022-11-17T16:29:14.578Z,7.13
2022-11-17T16:31:43.835Z,7.30
2022-11-17T16:34:13.667Z,7.40
2022-11-17T16:36:44.627Z,7.57
2022-11-17T16:39:14.491Z,7.43
2022-11-17T16:41:45.497Z,7.57
2022-11-17T16:44:15.184Z,7.30
2022-11-17T16:46:44.377Z,7.63
2022-11-17T16:49:14.231Z,6.93
2022-11-17T16:51:48.160Z,8.43
2022-11-17T16:54:17.066Z,8.83
2022-11-17T16:56:45.239Z,8.90
2022-11-17T16:59:13.707Z,10.80
2022-11-17T17:01:42.059Z,10.73
2022-11-17T17:04:12.348Z,10.50
2022-11-17T17:06:41.456Z,10.33
2022-11-17T17:09:13.046Z,10.27
2022-11-17T17:11:41.752Z,10.57
2022-11-17T17:14:13.697Z,11.80
2022-11-17T17:16:42.495Z,10.00
2022-11-17T17:19:12.277Z,9.80
2022-11-17T17:21:41.026Z,10.00
2022-11-17T17:24:12.345Z,9.37
2022-11-17T17:26:41.536Z,9.30
2022-11-17T17:29:10.106Z,9.63
2022-11-17T17:31:39.925Z,9.87
2022-11-17T17:34:08.777Z,10.57
2022-11-17T17:36:38.615Z,10.27
2022-11-17T17:39:08.225Z,9.43
2022-11-17T17:41:41.326Z,9.53
2022-11-17T17:44:10.353Z,10.47
2022-11-17T17:46:39.747Z,10.00
2022-11-17T17:49:08.294Z,10.30
2022-11-17T17:51:40.249Z,11.50
2022-11-17T17:54:08.497Z,12.53
2022-11-17T17:56:38.115Z,13.10
2022-11-17T17:59:06.285Z,13.73
2022-11-17T18:01:34.553Z,12.87
2022-11-17T18:04:05.618Z,13.47
2022-11-17T18:06:37.483Z,13.20
2022-11-17T18:09:06.194Z,14.50
2022-11-17T18:11:35.867Z,13.77
2022-11-17T18:14:06.456Z,14.27
2022-11-17T18:16:35.244Z,13.47
2022-11-17T18:19:05.157Z,13.80
2022-11-17T18:21:34.105Z,13.37
2022-11-17T18:24:03.586Z,13.23
2022-11-17T18:26:33.142Z,12.17
2022-11-17T18:29:03.297Z,13.53
2022-11-17T18:31:34.364Z,15.27
2022-11-17T18:34:04.878Z,14.43
2022-11-17T18:36:34.895Z,14.63
2022-11-17T18:39:03.768Z,18.20
2022-11-17T18:41:34.114Z,17.13
2022-11-17T18:44:02.765Z,16.03
2022-11-17T18:46:33.630Z,16.67
2022-11-17T18:49:01.977Z,14.93
2022-11-17T18:51:31.740Z,15.27
2022-11-17T18:54:01.263Z,20.57
2022-11-17T18:56:32.735Z,21.57
2022-11-17T18:59:00.976Z,19.83
2022-11-17T19:01:30.494Z,19.97
2022-11-17T19:04:01.615Z,19.03
2022-11-17T19:06:30.128Z,16.53
2022-11-17T19:09:00.056Z,17.07
2022-11-17T19:11:30.834Z,19.10
2022-11-17T19:14:00.186Z,20.37
2022-11-17T19:16:28.675Z,17.37
2022-11-17T19:18:57.625Z,18.43
2022-11-17T19:21:28.624Z,16.03
2022-11-17T19:23:59.165Z,17.27
2022-11-17T19:26:29.170Z,16.97
2022-11-17T19:28:58.160Z,15.90
2022-11-17T19:31:26.756Z,16.23
2022-11-17T19:33:56.315Z,16.60
2022-11-17T19:36:27.831Z,15.73
2022-11-17T19:38:57.455Z,20.47
2022-11-17T19:41:26.982Z,20.43
2022-11-17T19:43:55.958Z,20.43
2022-11-17T19:46:26.501Z,18.97
2022-11-17T19:48:54.895Z,19.13
2022-11-17T19:51:24.771Z,19.17
2022-11-17T19:53:56.443Z,19.43
2022-11-17T19:56:25.778Z,18.87
2022-11-17T19:58:54.535Z,19.10
2022-11-17T20:01:25.465Z,17.93
2022-11-17T20:03:54.008Z,20.63
2022-11-17T20:06:23.586Z,20.10
2022-11-17T20:08:53.206Z,20.13
2022-11-17T20:11:23.180Z,20.20
2022-11-17T20:13:51.626Z,19.97
2022-11-17T20:16:22.598Z,17.93
2022-11-17T20:18:53.834Z,17.17
2022-11-17T20:21:22.219Z,16.80
2022-11-17T20:23:51.844Z,16.03
2022-11-17T20:26:23.275Z,16.63
2022-11-17T20:28:51.665Z,14.77
2022-11-17T20:31:21.890Z,13.33
2022-11-17T20:33:50.189Z,14.83
2022-11-17T20:36:20.655Z,15.83
2022-11-17T20:38:52.528Z,15.43
2022-11-17T20:41:23.563Z,14.73
2022-11-17T20:43:53.195Z,14.60
2022-11-17T20:46:23.802Z,15.43
2022-11-17T20:48:52.055Z,14.53
2022-11-17T20:51:21.765Z,13.60
2022-11-17T20:53:50.527Z,13.80
2022-11-17T20:56:20.011Z,14.00
2022-11-17T20:58:49.913Z,16.10
2022-11-17T21:01:19.935Z,15.17
2022-11-17T21:03:49.895Z,14.47
2022-11-17T21:06:20.708Z,14.60
2022-11-17T21:08:49.145Z,15.60
2022-11-17T21:11:32.759Z,15.67
2022-11-17T21:14:04.135Z,16.77
2022-11-17T21:16:34.132Z,16.17
2022-11-17T21:19:02.269Z,18.87
2022-11-17T21:21:31.942Z,17.13
2022-11-17T21:24:01.693Z,16.90
2022-11-17T21:26:30.006Z,14.70
2022-11-17T21:29:05.982Z,14.70
2022-11-17T21:31:36.779Z,17.60
2022-11-17T21:34:07.261Z,16.37
2022-11-17T21:36:37.378Z,15.10
2022-11-17T21:39:06.031Z,16.90
2022-11-17T21:41:36.331Z,15.87
2022-11-17T21:44:04.885Z,17.20
2022-11-17T21:46:36.467Z,18.33
2022-11-17T21:49:05.093Z,17.73
2022-11-17T21:51:35.066Z,17.23
2022-11-17T21:54:05.023Z,18.43
2022-11-17T21:56:33.487Z,17.07
2022-11-17T21:59:02.708Z,18.70
2022-11-17T22:01:31.947Z,17.23
2022-11-17T22:04:01.705Z,17.57
2022-11-17T22:06:30.786Z,17.70
2022-11-17T22:09:00.192Z,17.47
2022-11-17T22:11:39.127Z,18.00
2022-11-17T22:14:10.053Z,16.50
2022-11-17T22:16:39.541Z,17.70
2022-11-17T22:19:09.700Z,17.50
2022-11-17T22:21:38.434Z,17.57
2022-11-17T22:24:08.227Z,17.47
2022-11-17T22:26:38.483Z,18.20
2022-11-17T22:29:07.746Z,17.60
2022-11-17T22:31:35.996Z,17.57
2022-11-17T22:34:04.397Z,16.80
2022-11-17T22:36:34.027Z,29.90
2022-11-17T22:39:02.248Z,20.33
2022-11-17T22:41:30.378Z,17.57
2022-11-17T22:43:59.481Z,17.13
2022-11-17T22:46:29.052Z,18.27
2022-11-17T22:48:57.377Z,20.07
2022-11-17T22:51:43.669Z,19.70
2022-11-17T22:54:13.264Z,17.27
2022-11-17T22:56:41.418Z,17.40
2022-11-17T22:59:09.815Z,17.53
2022-11-17T23:01:38.005Z,18.37
2022-11-17T23:04:07.164Z,17.90
2022-11-17T23:06:35.562Z,18.33
2022-11-17T23:09:03.902Z,19.70
2022-11-17T23:11:37.930Z,19.30
2022-11-17T23:14:06.816Z,19.70
2022-11-17T23:16:34.954Z,19.43
2022-11-17T23:19:03.205Z,18.00
2022-11-17T23:21:31.643Z,19.37
2022-11-17T23:23:59.776Z,19.70
2022-11-17T23:26:27.955Z,19.13
2022-11-17T23:28:58.265Z,25.87
2022-11-17T23:31:27.990Z,24.27
2022-11-17T23:33:56.357Z,21.17
2022-11-17T23:36:24.857Z,18.93
2022-11-17T23:38:53.855Z,19.00
2022-11-17T23:41:22.609Z,18.67
2022-11-17T23:43:51.930Z,18.90
2022-11-17T23:46:23.055Z,18.77
2022-11-17T23:48:51.586Z,18.10
2022-11-17T23:51:21.950Z,17.97
2022-11-17T23:53:50.665Z,16.27
2022-11-17T23:56:20.736Z,18.87
2022-11-17T23:58:49.025Z,17.77
